Time;durP1;ratioP1;P1;durP2;ratioP2;P2;SDS_P1;SDS_P2;PMS_P1;PMS_P2;Temp;Humidity;BMP_temperature;BMP_pressure;BME280_temperature;BME280_humidity;BME280_pressure;Samples;Min_cycle;Max_cycle;Signal;HPM_P1;HPM_P2
2021/11/29 00:02:03;;;;;;;8.07;0.95;;;;;;;;;;5008824;28;20052;-63
2021/11/29 00:04:31;;;;;;;3.63;0.73;;;;;;;;;;4991573;28;20116;-64
2021/11/29 00:07:01;;;;;;;2.53;0.65;;;;;;;;;;4982806;28;20029;-63
2021/11/29 00:09:27;;;;;;;3.10;0.52;;;;;;;;;;4972406;28;21018;-66
2021/11/29 00:11:57;;;;;;;4.05;0.80;;;;;;;;;;4990940;28;20886;-65
2021/11/29 00:14:59;;;;;;;2.58;0.88;;;;;;;;;;5009338;28;20045;-64
2021/11/29 00:17:25;;;;;;;1.65;0.70;;;;;;;;;;5010380;28;20053;-65
2021/11/29 00:19:58;;;;;;;6.45;0.70;;;;;;;;;;5007543;28;20064;-64
2021/11/29 00:22:23;;;;;;;2.80;0.52;;;;;;;;;;5003716;28;20067;-63
2021/11/29 00:24:49;;;;;;;4.22;0.80;;;;;;;;;;4991810;28;20143;-64
2021/11/29 00:27:14;;;;;;;4.35;0.90;;;;;;;;;;4989382;28;20040;-63
2021/11/29 00:29:42;;;;;;;5.80;0.55;;;;;;;;;;4971808;28;20052;-64
2021/11/29 00:32:08;;;;;;;1.85;0.57;;;;;;;;;;5011162;28;20044;-65
2021/11/29 00:34:36;;;;;;;1.45;0.35;;;;;;;;;;5008557;28;20037;-64
2021/11/29 00:37:03;;;;;;;5.70;0.77;;;;;;;;;;4970598;28;20048;-65
2021/11/29 00:39:31;;;;;;;5.15;1.48;;;;;;;;;;4993296;28;20069;-64
2021/11/29 00:42:04;;;;;;;4.30;0.45;;;;;;;;;;4992078;28;20029;-64
2021/11/29 00:44:36;;;;;;;6.05;0.63;;;;;;;;;;4992600;28;20034;-65
2021/11/29 00:47:02;;;;;;;11.55;0.98;;;;;;;;;;4956881;28;20129;-63
2021/11/29 00:49:30;;;;;;;5.15;0.65;;;;;;;;;;4991481;28;20539;-60
2021/11/29 00:52:00;;;;;;;4.65;0.77;;;;;;;;;;4991455;28;20136;-58
2021/11/29 00:54:26;;;;;;;3.35;0.50;;;;;;;;;;4966558;28;20126;-59
2021/11/29 00:56:55;;;;;;;0.10;0.10;;;;;;;;;;5010469;28;20980;-59
2021/11/29 00:59:21;;;;;;;0.45;0.32;;;;;;;;;;5009664;28;20124;-58
2021/11/29 01:01:52;;;;;;;4.13;0.68;;;;;;;;;;5009877;28;21903;-59
2021/11/29 01:04:22;;;;;;;6.30;0.52;;;;;;;;;;5007658;28;20029;-58
2021/11/29 01:06:50;;;;;;;2.67;0.60;;;;;;;;;;5009119;28;20065;-58
2021/11/29 01:09:16;;;;;;;0.60;0.13;;;;;;;;;;5008391;28;20036;-59
2021/11/29 01:11:41;;;;;;;5.75;1.05;;;;;;;;;;4988545;28;20049;-57
2021/11/29 01:14:09;;;;;;;2.97;0.20;;;;;;;;;;4990266;28;20998;-58
2021/11/29 01:16:37;;;;;;;3.28;0.38;;;;;;;;;;5009347;28;20045;-57
2021/11/29 01:19:03;;;;;;;4.57;0.50;;;;;;;;;;4974454;28;20080;-58
2021/11/29 01:21:32;;;;;;;2.00;0.25;;;;;;;;;;4993738;28;20057;-57
2021/11/29 01:23:58;;;;;;;2.88;0.10;;;;;;;;;;5009859;28;20089;-58
2021/11/29 01:26:24;;;;;;;1.95;0.13;;;;;;;;;;4993433;28;20037;-58
2021/11/29 01:28:51;;;;;;;0.63;0.15;;;;;;;;;;5013357;28;20036;-59
2021/11/29 01:31:19;;;;;;;0.00;0.00;;;;;;;;;;5015172;28;20029;-60
2021/11/29 01:33:47;;;;;;;3.45;0.20;;;;;;;;;;5013053;28;20029;-58
2021/11/29 01:36:14;;;;;;;1.83;0.13;;;;;;;;;;5013398;28;20048;-56
2021/11/29 01:38:40;;;;;;;1.98;0.15;;;;;;;;;;5013648;28;20072;-55
2021/11/29 01:41:08;;;;;;;0.20;0.10;;;;;;;;;;5011907;28;20037;-56
2021/11/29 01:43:41;;;;;;;4.47;0.15;;;;;;;;;;4994986;28;20147;-56
2021/11/29 01:46:10;;;;;;;0.47;0.10;;;;;;;;;;5013903;28;20029;-56
2021/11/29 01:48:40;;;;;;;0.13;0.10;;;;;;;;;;5013092;28;20033;-57
2021/11/29 01:51:07;;;;;;;0.45;0.15;;;;;;;;;;4993969;28;20159;-57
2021/11/29 01:53:35;;;;;;;0.22;0.00;;;;;;;;;;4992395;28;20063;-56
2021/11/29 01:56:03;;;;;;;0.00;0.00;;;;;;;;;;4993559;28;20037;-56
2021/11/29 01:58:31;;;;;;;0.65;0.10;;;;;;;;;;4993918;28;20037;-57
2021/11/29 02:00:57;;;;;;;0.20;0.00;;;;;;;;;;5010812;28;20052;-58
2021/11/29 02:03:25;;;;;;;0.28;0.00;;;;;;;;;;5015286;28;20029;-57
2021/11/29 02:05:56;;;;;;;0.10;0.00;;;;;;;;;;5011938;28;20033;-56
2021/11/29 02:08:21;;;;;;;2.58;0.13;;;;;;;;;;5014077;28;20033;-58
2021/11/29 02:10:47;;;;;;;2.92;0.28;;;;;;;;;;5008779;28;20065;-58
2021/11/29 02:13:13;;;;;;;0.32;0.30;;;;;;;;;;5010125;28;20043;-57
2021/11/29 02:15:39;;;;;;;9.32;0.70;;;;;;;;;;4989078;28;20124;-56
2021/11/29 02:18:05;;;;;;;2.78;0.17;;;;;;;;;;4992849;28;20515;-55
2021/11/29 02:20:33;;;;;;;10.80;0.38;;;;;;;;;;5014850;28;20029;-55
2021/11/29 02:23:00;;;;;;;0.20;0.10;;;;;;;;;;4992019;28;20029;-57
2021/11/29 02:25:25;;;;;;;2.45;0.38;;;;;;;;;;5007842;28;20041;-56
2021/11/29 02:27:56;;;;;;;0.73;0.20;;;;;;;;;;4991631;28;20049;-56
2021/11/29 02:30:23;;;;;;;1.02;0.30;;;;;;;;;;4992628;28;20701;-56
2021/11/29 02:32:51;;;;;;;1.23;0.05;;;;;;;;;;5004828;28;20056;-58
2021/11/29 02:35:16;;;;;;;0.85;0.38;;;;;;;;;;5010885;28;20029;-56
2021/11/29 02:37:45;;;;;;;1.38;0.45;;;;;;;;;;5008817;28;21238;-57
2021/11/29 02:40:10;;;;;;;5.80;0.25;;;;;;;;;;5013405;28;20029;-57
2021/11/29 02:42:41;;;;;;;0.35;0.05;;;;;;;;;;4993312;28;22176;-56
2021/11/29 02:45:12;;;;;;;0.45;0.30;;;;;;;;;;5011094;28;20716;-57
2021/11/29 02:47:37;;;;;;;1.02;0.22;;;;;;;;;;5009791;28;20094;-56
2021/11/29 02:50:05;;;;;;;0.05;0.05;;;;;;;;;;4992573;28;20041;-57
2021/11/29 02:52:30;;;;;;;2.08;0.40;;;;;;;;;;4991517;28;20040;-56
2021/11/29 02:54:58;;;;;;;0.00;0.00;;;;;;;;;;4974770;28;20042;-56
2021/11/29 02:57:26;;;;;;;0.10;0.10;;;;;;;;;;4992134;28;20082;-57
2021/11/29 02:59:57;;;;;;;2.15;0.20;;;;;;;;;;4993470;28;20033;-57
2021/11/29 03:02:26;;;;;;;2.95;0.38;;;;;;;;;;4994494;28;20037;-58
2021/11/29 03:04:54;;;;;;;1.98;0.10;;;;;;;;;;4994909;28;20057;-55
2021/11/29 03:07:22;;;;;;;0.00;0.00;;;;;;;;;;5010960;28;20128;-57
2021/11/29 03:09:50;;;;;;;4.35;1.10;;;;;;;;;;5011660;28;20109;-56
2021/11/29 03:12:18;;;;;;;0.68;0.22;;;;;;;;;;5009409;28;20030;-57
2021/11/29 03:14:43;;;;;;;0.13;0.10;;;;;;;;;;5010365;28;20049;-56
2021/11/29 03:17:09;;;;;;;3.75;0.20;;;;;;;;;;5010438;28;20053;-57
2021/11/29 03:19:40;;;;;;;5.38;0.40;;;;;;;;;;4992393;28;20033;-57
2021/11/29 03:22:08;;;;;;;1.83;0.40;;;;;;;;;;5013069;28;20022;-56
2021/11/29 03:24:33;;;;;;;2.17;0.20;;;;;;;;;;4989728;28;21952;-55
2021/11/29 03:27:01;;;;;;;3.92;0.60;;;;;;;;;;5012153;28;20087;-58
2021/11/29 03:29:30;;;;;;;2.42;0.25;;;;;;;;;;5009127;28;20048;-57
2021/11/29 03:31:59;;;;;;;6.97;0.35;;;;;;;;;;5010894;28;20570;-56
2021/11/29 03:34:25;;;;;;;3.05;0.50;;;;;;;;;;4995482;28;20414;-56
2021/11/29 03:36:53;;;;;;;3.22;0.40;;;;;;;;;;4991952;28;20419;-56
2021/11/29 03:39:23;;;;;;;0.40;0.08;;;;;;;;;;5008963;28;20045;-57
2021/11/29 03:41:49;;;;;;;0.00;0.00;;;;;;;;;;5014383;28;20139;-55
2021/11/29 03:44:18;;;;;;;1.45;0.22;;;;;;;;;;5017694;28;20633;-60
2021/11/29 03:46:47;;;;;;;0.85;0.30;;;;;;;;;;5016858;28;20220;-57
2021/11/29 03:49:12;;;;;;;2.75;0.38;;;;;;;;;;5013109;28;20033;-58
2021/11/29 03:51:38;;;;;;;1.45;0.35;;;;;;;;;;4996410;28;20041;-55
2021/11/29 03:54:03;;;;;;;2.22;0.40;;;;;;;;;;4991515;28;20033;-57
2021/11/29 03:56:29;;;;;;;0.30;0.30;;;;;;;;;;4992675;28;20044;-56
2021/11/29 03:58:54;;;;;;;1.50;0.22;;;;;;;;;;5010634;28;20029;-56
2021/11/29 04:01:20;;;;;;;1.58;0.45;;;;;;;;;;5010919;28;20060;-56
2021/11/29 04:03:46;;;;;;;1.55;0.20;;;;;;;;;;4992954;28;20116;-55
2021/11/29 04:06:12;;;;;;;2.22;0.40;;;;;;;;;;5011802;28;20045;-55
2021/11/29 04:08:37;;;;;;;4.63;0.50;;;;;;;;;;5010407;28;20033;-57
2021/11/29 04:11:03;;;;;;;1.55;0.40;;;;;;;;;;4991516;28;20028;-56
2021/11/29 04:13:28;;;;;;;0.30;0.10;;;;;;;;;;5010695;28;20437;-57
2021/11/29 04:15:54;;;;;;;3.00;0.68;;;;;;;;;;5008523;28;21070;-57
2021/11/29 04:18:20;;;;;;;0.38;0.28;;;;;;;;;;5011864;28;20044;-58
2021/11/29 04:20:49;;;;;;;3.60;0.40;;;;;;;;;;4991180;28;20059;-57
2021/11/29 04:23:17;;;;;;;2.33;0.47;;;;;;;;;;5001175;28;20473;-56
2021/11/29 04:25:50;;;;;;;1.10;0.30;;;;;;;;;;4993095;28;20034;-57
2021/11/29 04:28:18;;;;;;;1.00;0.63;;;;;;;;;;4993239;28;20030;-56
2021/11/29 04:34:22;;;;;;;0.10;0.10;;;;;;;;;;5003452;28;20091;-56
2021/11/29 04:36:48;;;;;;;4.03;0.40;;;;;;;;;;5008209;28;20037;-57
2021/11/29 04:39:36;;;;;;;3.50;0.30;;;;;;;;;;4971337;28;20136;-58
2021/11/29 04:42:05;;;;;;;0.82;0.40;;;;;;;;;;5007917;28;20183;-57
2021/11/29 04:44:30;;;;;;;4.55;0.40;;;;;;;;;;4989241;28;20033;-57
2021/11/29 04:46:58;;;;;;;0.88;0.55;;;;;;;;;;4985942;28;20449;-56
2021/11/29 04:49:26;;;;;;;1.67;0.55;;;;;;;;;;5006432;28;20090;-57
2021/11/29 04:51:56;;;;;;;0.20;0.20;;;;;;;;;;4989537;28;20072;-58
2021/11/29 04:54:21;;;;;;;3.08;0.65;;;;;;;;;;5007891;28;20064;-58
2021/11/29 04:56:47;;;;;;;0.60;0.40;;;;;;;;;;4988709;28;20087;-56
2021/11/29 04:59:15;;;;;;;2.28;1.52;;;;;;;;;;4990638;28;20040;-56
2021/11/29 05:01:46;;;;;;;0.35;0.30;;;;;;;;;;5011791;28;20033;-58
2021/11/29 05:04:11;;;;;;;2.67;0.38;;;;;;;;;;5012828;28;20440;-57
2021/11/29 05:06:38;;;;;;;0.98;0.40;;;;;;;;;;4995007;28;20087;-57
2021/11/29 05:09:33;;;;;;;2.75;0.50;;;;;;;;;;5012499;28;20040;-57
2021/11/29 05:12:01;;;;;;;0.75;0.38;;;;;;;;;;5012796;28;21883;-57
2021/11/29 05:14:30;;;;;;;1.17;0.40;;;;;;;;;;5006504;28;20049;-57
2021/11/29 05:16:55;;;;;;;0.47;0.30;;;;;;;;;;5012442;28;20068;-57
2021/11/29 05:19:23;;;;;;;0.68;0.50;;;;;;;;;;5012447;28;20825;-57
2021/11/29 05:21:51;;;;;;;1.05;0.43;;;;;;;;;;4992335;28;20032;-58
2021/11/29 05:24:18;;;;;;;2.65;0.50;;;;;;;;;;5014531;28;20029;-58
2021/11/29 05:26:43;;;;;;;0.70;0.45;;;;;;;;;;4989732;28;20038;-58
2021/11/29 05:29:15;;;;;;;3.00;0.52;;;;;;;;;;4993315;28;20498;-56
2021/11/29 05:31:43;;;;;;;2.13;0.47;;;;;;;;;;4976854;28;20029;-58
2021/11/29 05:34:13;;;;;;;1.25;0.60;;;;;;;;;;5008166;28;20065;-58
2021/11/29 05:36:43;;;;;;;1.63;0.63;;;;;;;;;;4995149;28;20045;-57
2021/11/29 05:39:14;;;;;;;1.30;0.28;;;;;;;;;;5015170;28;20029;-58
2021/11/29 05:41:39;;;;;;;0.65;0.52;;;;;;;;;;5010136;28;20056;-57
2021/11/29 05:44:05;;;;;;;0.60;0.55;;;;;;;;;;5011179;28;20037;-57
2021/11/29 05:46:30;;;;;;;1.50;0.70;;;;;;;;;;4993250;28;20061;-58
2021/11/29 05:52:06;;;;;;;0.65;0.57;;;;;;;;;;5012034;28;20033;-57
2021/11/29 05:54:35;;;;;;;0.57;0.57;;;;;;;;;;5012107;28;21213;-56
2021/11/29 06:00:37;;;;;;;2.13;0.85;;;;;;;;;;5011504;28;20060;-56
2021/11/29 06:03:07;;;;;;;2.47;0.50;;;;;;;;;;5010696;28;20029;-58
2021/11/29 06:05:38;;;;;;;2.67;0.93;;;;;;;;;;5008482;28;20456;-58
2021/11/29 06:08:06;;;;;;;0.50;0.50;;;;;;;;;;4995109;28;20192;-57
2021/11/29 06:10:31;;;;;;;1.92;0.88;;;;;;;;;;5013694;28;20045;-58
2021/11/29 06:13:01;;;;;;;1.52;0.90;;;;;;;;;;5010493;28;20041;-58
2021/11/29 06:15:26;;;;;;;2.08;0.90;;;;;;;;;;5013105;28;20045;-58
2021/11/29 06:17:55;;;;;;;1.35;0.80;;;;;;;;;;5010663;28;20056;-56
2021/11/29 06:20:21;;;;;;;2.30;1.20;;;;;;;;;;4991362;28;20071;-57
2021/11/29 06:22:52;;;;;;;1.05;0.70;;;;;;;;;;5007685;28;20065;-56
2021/11/29 06:25:23;;;;;;;1.40;0.82;;;;;;;;;;5008552;28;20121;-58
2021/11/29 06:27:49;;;;;;;2.00;0.85;;;;;;;;;;4975952;28;20126;-56
2021/11/29 06:30:16;;;;;;;3.05;1.25;;;;;;;;;;5011771;28;20033;-58
2021/11/29 06:32:42;;;;;;;0.70;0.65;;;;;;;;;;5008406;28;20037;-58
2021/11/29 06:35:12;;;;;;;2.72;1.15;;;;;;;;;;5010268;28;20037;-57
2021/11/29 06:37:41;;;;;;;2.83;1.02;;;;;;;;;;5013173;28;20041;-56
2021/11/29 06:40:09;;;;;;;4.53;0.85;;;;;;;;;;5009477;28;20718;-55
2021/11/29 06:42:35;;;;;;;0.55;0.55;;;;;;;;;;5007836;28;20459;-57
2021/11/29 06:45:03;;;;;;;3.25;1.38;;;;;;;;;;4976407;28;20033;-57
2021/11/29 06:47:30;;;;;;;1.25;0.90;;;;;;;;;;5014691;28;20029;-57
2021/11/29 06:49:56;;;;;;;1.63;0.57;;;;;;;;;;5009980;28;20043;-57
2021/11/29 06:52:24;;;;;;;6.47;1.60;;;;;;;;;;4992506;28;20026;-56
2021/11/29 06:54:52;;;;;;;3.85;1.40;;;;;;;;;;5013407;28;20246;-56
2021/11/29 06:57:21;;;;;;;1.17;0.98;;;;;;;;;;4973389;28;20124;-59
2021/11/29 06:59:47;;;;;;;54.88;27.45;;;;;;;;;;5012405;28;21054;-57
2021/11/29 07:02:13;;;;;;;8.07;4.90;;;;;;;;;;4989430;28;20034;-58
2021/11/29 07:04:41;;;;;;;3.22;1.85;;;;;;;;;;5009059;28;20440;-58
2021/11/29 07:07:07;;;;;;;2.97;1.13;;;;;;;;;;5012119;28;20063;-56
2021/11/29 07:09:37;;;;;;;4.47;2.05;;;;;;;;;;5009552;28;20033;-56
2021/11/29 07:12:07;;;;;;;1.67;1.25;;;;;;;;;;4992885;28;20045;-56
2021/11/29 07:14:35;;;;;;;4.30;2.80;;;;;;;;;;4987402;28;20140;-57
2021/11/29 07:17:02;;;;;;;5.28;2.10;;;;;;;;;;5009933;28;20361;-58
2021/11/29 07:19:29;;;;;;;1.38;1.27;;;;;;;;;;4987411;28;20108;-57
2021/11/29 07:21:57;;;;;;;2.40;1.52;;;;;;;;;;5009185;28;20125;-56
2021/11/29 07:24:28;;;;;;;2.47;1.50;;;;;;;;;;5008948;28;21008;-58
2021/11/29 07:26:54;;;;;;;6.70;1.50;;;;;;;;;;5007549;28;20147;-59
2021/11/29 07:29:26;;;;;;;5.43;1.25;;;;;;;;;;4992920;28;20041;-59
2021/11/29 07:31:54;;;;;;;3.72;1.80;;;;;;;;;;5011703;28;20033;-59
2021/11/29 07:34:24;;;;;;;2.10;1.35;;;;;;;;;;4990857;28;20048;-59
2021/11/29 07:36:54;;;;;;;3.63;1.80;;;;;;;;;;5007436;28;20033;-57
2021/11/29 07:39:20;;;;;;;2.28;1.50;;;;;;;;;;5009784;28;20032;-59
2021/11/29 07:41:45;;;;;;;2.10;1.65;;;;;;;;;;5011414;28;20037;-59
2021/11/29 07:44:14;;;;;;;2.05;1.70;;;;;;;;;;5011143;28;20033;-59
2021/11/29 07:46:39;;;;;;;4.18;1.95;;;;;;;;;;4986698;28;20045;-57
2021/11/29 07:49:39;;;;;;;3.58;2.00;;;;;;;;;;4991674;28;20044;-57
2021/11/29 07:52:04;;;;;;;3.65;1.70;;;;;;;;;;5005886;28;20892;-58
2021/11/29 07:54:37;;;;;;;9.93;4.72;;;;;;;;;;5003801;28;20034;-58
2021/11/29 07:57:03;;;;;;;10.75;4.13;;;;;;;;;;4995703;28;20029;-58
2021/11/29 07:59:28;;;;;;;5.25;3.17;;;;;;;;;;4987826;28;20111;-59
2021/11/29 08:01:58;;;;;;;3.85;1.75;;;;;;;;;;5008439;28;20515;-58
2021/11/29 08:04:24;;;;;;;3.92;1.92;;;;;;;;;;5010588;28;20029;-58
2021/11/29 08:06:49;;;;;;;1.38;1.27;;;;;;;;;;5008330;28;20037;-60
2021/11/29 08:09:17;;;;;;;2.05;1.30;;;;;;;;;;4982433;28;20033;-60
2021/11/29 08:11:43;;;;;;;1.80;1.15;;;;;;;;;;5006196;28;20040;-59
2021/11/29 08:14:12;;;;;;;1.95;1.25;;;;;;;;;;4976321;28;20049;-59
2021/11/29 08:16:37;;;;;;;5.75;1.58;;;;;;;;;;5005353;28;20056;-59
2021/11/29 08:19:05;;;;;;;10.40;3.10;;;;;;;;;;4966600;28;20080;-60
2021/11/29 08:21:30;;;;;;;2.30;1.55;;;;;;;;;;5008812;28;20025;-58
2021/11/29 08:23:58;;;;;;;1.80;1.40;;;;;;;;;;4972519;28;20028;-59
2021/11/29 08:26:28;;;;;;;5.55;1.52;;;;;;;;;;5009582;28;20025;-60
2021/11/29 08:28:56;;;;;;;3.65;1.85;;;;;;;;;;5010242;28;20036;-60
2021/11/29 08:31:21;;;;;;;5.18;1.55;;;;;;;;;;4988955;28;20495;-60
2021/11/29 08:33:47;;;;;;;9.18;2.45;;;;;;;;;;4990705;28;20029;-59
2021/11/29 08:36:12;;;;;;;9.13;1.55;;;;;;;;;;5013763;28;20035;-59
2021/11/29 08:38:37;;;;;;;4.47;1.80;;;;;;;;;;4990621;28;20037;-60
2021/11/29 08:41:05;;;;;;;10.25;2.17;;;;;;;;;;5008500;28;20071;-60
2021/11/29 08:43:38;;;;;;;3.05;1.35;;;;;;;;;;5009591;28;20116;-59
2021/11/29 08:46:06;;;;;;;3.38;1.50;;;;;;;;;;5007725;28;20040;-59
2021/11/29 08:48:38;;;;;;;7.32;1.45;;;;;;;;;;5012595;28;20051;-59
2021/11/29 08:51:03;;;;;;;3.75;1.98;;;;;;;;;;4991516;28;20033;-58
2021/11/29 08:53:31;;;;;;;9.38;2.35;;;;;;;;;;5013549;28;20162;-59
2021/11/29 08:55:57;;;;;;;8.57;2.30;;;;;;;;;;4968510;28;20117;-60
2021/11/29 08:58:26;;;;;;;6.38;2.20;;;;;;;;;;4995041;28;20032;-58
2021/11/29 09:00:57;;;;;;;6.97;2.10;;;;;;;;;;5015148;28;20032;-58
2021/11/29 09:03:25;;;;;;;5.82;2.58;;;;;;;;;;4976233;28;20056;-58
2021/11/29 09:05:51;;;;;;;4.75;2.28;;;;;;;;;;4990438;28;20044;-58
2021/11/29 09:08:19;;;;;;;3.35;1.98;;;;;;;;;;5013370;28;20034;-59
2021/11/29 09:10:53;;;;;;;3.17;1.95;;;;;;;;;;5003126;28;20590;-57
2021/11/29 09:13:21;;;;;;;6.95;2.15;;;;;;;;;;5008871;28;20021;-59
2021/11/29 09:15:50;;;;;;;3.20;1.50;;;;;;;;;;4993330;28;20052;-57
2021/11/29 09:18:15;;;;;;;4.40;1.90;;;;;;;;;;4991308;28;20140;-58
2021/11/29 09:20:43;;;;;;;4.75;2.15;;;;;;;;;;5008136;28;20037;-58
2021/11/29 09:23:12;;;;;;;8.95;2.33;;;;;;;;;;5011330;28;20559;-58
2021/11/29 09:25:41;;;;;;;3.53;1.60;;;;;;;;;;5012637;28;20964;-58
2021/11/29 09:28:13;;;;;;;8.10;2.47;;;;;;;;;;5008754;28;20060;-59
2021/11/29 09:30:41;;;;;;;11.18;2.35;;;;;;;;;;5009133;28;20598;-59
2021/11/29 09:33:07;;;;;;;8.60;2.45;;;;;;;;;;5011458;28;20041;-58
2021/11/29 09:35:36;;;;;;;10.55;3.05;;;;;;;;;;4992720;28;20029;-57
2021/11/29 09:38:07;;;;;;;7.93;2.13;;;;;;;;;;5009112;28;20033;-59
2021/11/29 09:40:38;;;;;;;8.07;2.75;;;;;;;;;;5011664;28;20049;-58
2021/11/29 09:43:08;;;;;;;10.68;2.22;;;;;;;;;;5010028;28;20029;-59
2021/11/29 09:45:34;;;;;;;3.53;1.90;;;;;;;;;;5011528;28;20067;-59
2021/11/29 09:47:59;;;;;;;5.25;1.60;;;;;;;;;;5010779;28;20033;-58
2021/11/29 09:50:25;;;;;;;1.98;1.50;;;;;;;;;;4990638;28;20041;-58
2021/11/29 09:52:51;;;;;;;3.97;1.60;;;;;;;;;;5009750;28;20545;-58
2021/11/29 09:55:19;;;;;;;2.53;1.55;;;;;;;;;;4991162;28;20038;-58
2021/11/29 09:57:47;;;;;;;3.90;1.58;;;;;;;;;;5009461;28;20388;-59
2021/11/29 10:00:17;;;;;;;2.65;1.48;;;;;;;;;;5011092;28;20693;-58
2021/11/29 10:02:45;;;;;;;2.78;1.70;;;;;;;;;;5011392;28;20033;-58
2021/11/29 10:05:14;;;;;;;2.47;1.70;;;;;;;;;;4993656;28;20041;-59
2021/11/29 10:07:45;;;;;;;4.95;1.90;;;;;;;;;;5011720;28;20529;-58
2021/11/29 10:10:19;;;;;;;3.53;1.88;;;;;;;;;;5008804;28;20188;-57
2021/11/29 10:12:46;;;;;;;2.75;1.92;;;;;;;;;;5011710;28;20029;-57
2021/11/29 10:15:19;;;;;;;3.20;2.10;;;;;;;;;;4991160;28;20069;-58
2021/11/29 10:17:48;;;;;;;3.08;1.55;;;;;;;;;;4988286;28;20081;-57
2021/11/29 10:20:16;;;;;;;2.88;1.70;;;;;;;;;;5008033;28;20038;-57
2021/11/29 10:22:57;;;;;;;1.55;1.20;;;;;;;;;;4991275;28;20178;-57
2021/11/29 10:25:24;;;;;;;3.50;1.35;;;;;;;;;;5010516;28;20051;-57
2021/11/29 10:27:52;;;;;;;2.40;1.30;;;;;;;;;;4991285;28;20026;-57
2021/11/29 10:30:21;;;;;;;3.55;1.70;;;;;;;;;;4974909;28;20052;-58
2021/11/29 10:32:48;;;;;;;4.38;1.80;;;;;;;;;;5010588;28;20710;-58
2021/11/29 10:35:32;;;;;;;3.40;1.50;;;;;;;;;;5009677;28;20041;-59
2021/11/29 10:37:58;;;;;;;4.68;2.13;;;;;;;;;;4991560;28;20041;-58
2021/11/29 10:40:26;;;;;;;3.38;1.67;;;;;;;;;;5008757;28;20033;-59
2021/11/29 10:42:52;;;;;;;3.88;1.55;;;;;;;;;;4995033;28;20080;-58
2021/11/29 10:45:22;;;;;;;4.60;1.95;;;;;;;;;;5009955;28;20139;-58
2021/11/29 10:47:52;;;;;;;2.90;1.88;;;;;;;;;;4991496;28;20239;-58
2021/11/29 10:50:19;;;;;;;4.07;1.90;;;;;;;;;;4988654;28;20042;-57
2021/11/29 10:52:53;;;;;;;3.55;1.75;;;;;;;;;;5004665;28;21982;-57
2021/11/29 10:55:21;;;;;;;6.75;2.33;;;;;;;;;;4989308;28;20138;-58
2021/11/29 10:57:52;;;;;;;4.38;1.88;;;;;;;;;;4990119;28;20452;-58
2021/11/29 11:00:20;;;;;;;4.95;1.55;;;;;;;;;;5007692;28;20045;-58
2021/11/29 11:03:14;;;;;;;1.98;1.33;;;;;;;;;;5001688;28;20139;-58
2021/11/29 11:06:05;;;;;;;3.83;1.40;;;;;;;;;;4970409;28;20049;-58
2021/11/29 11:08:37;;;;;;;4.45;1.52;;;;;;;;;;5009356;28;20478;-58
2021/11/29 11:11:25;;;;;;;6.63;1.60;;;;;;;;;;5008636;28;20033;-59
2021/11/29 11:13:55;;;;;;;3.30;1.83;;;;;;;;;;5010742;28;20040;-58
2021/11/29 11:16:37;;;;;;;2.88;1.45;;;;;;;;;;4977751;28;21996;-59
2021/11/29 11:19:03;;;;;;;6.22;1.70;;;;;;;;;;4990978;28;20028;-60
2021/11/29 11:21:32;;;;;;;2.15;1.25;;;;;;;;;;5004060;28;20376;-59
2021/11/29 11:24:19;;;;;;;2.92;1.95;;;;;;;;;;5010074;28;20111;-59
2021/11/29 11:26:50;;;;;;;7.75;1.70;;;;;;;;;;4988318;28;20071;-58
2021/11/29 11:29:30;;;;;;;4.82;1.88;;;;;;;;;;5003142;28;20036;-59
2021/11/29 11:32:13;;;;;;;3.92;1.75;;;;;;;;;;5007866;28;20029;-58
2021/11/29 11:34:43;;;;;;;4.88;1.77;;;;;;;;;;5007660;28;20057;-58
2021/11/29 11:37:11;;;;;;;2.15;1.55;;;;;;;;;;5007721;28;20033;-58
2021/11/29 11:39:40;;;;;;;4.50;2.15;;;;;;;;;;5007826;28;20148;-60
2021/11/29 11:42:06;;;;;;;2.72;1.60;;;;;;;;;;4991062;28;20106;-59
2021/11/29 11:44:36;;;;;;;6.60;2.15;;;;;;;;;;5007905;28;20049;-60
2021/11/29 11:47:05;;;;;;;4.50;2.00;;;;;;;;;;5010295;28;20135;-58
2021/11/29 11:49:36;;;;;;;3.55;1.73;;;;;;;;;;5008502;28;20171;-58
2021/11/29 11:52:03;;;;;;;2.45;1.50;;;;;;;;;;4971578;28;20164;-59
2021/11/29 11:54:32;;;;;;;3.42;1.52;;;;;;;;;;5006908;28;20063;-60
2021/11/29 11:57:03;;;;;;;2.70;1.63;;;;;;;;;;5007576;28;20033;-60
2021/11/29 11:59:39;;;;;;;3.17;1.75;;;;;;;;;;4989302;28;20052;-58
2021/11/29 12:02:05;;;;;;;4.13;1.67;;;;;;;;;;5009251;28;20026;-59
2021/11/29 12:04:33;;;;;;;3.30;1.83;;;;;;;;;;5004075;28;20025;-59
2021/11/29 12:06:59;;;;;;;3.72;1.65;;;;;;;;;;4974904;28;20041;-60
2021/11/29 12:09:31;;;;;;;4.40;1.98;;;;;;;;;;5007243;28;20132;-58
2021/11/29 12:12:05;;;;;;;3.15;1.50;;;;;;;;;;5001275;28;20818;-60
2021/11/29 12:14:35;;;;;;;5.53;1.85;;;;;;;;;;5005034;28;20055;-59
2021/11/29 12:17:09;;;;;;;2.78;1.60;;;;;;;;;;4999950;28;20498;-59
2021/11/29 12:19:46;;;;;;;2.05;1.40;;;;;;;;;;4996992;28;20036;-61
2021/11/29 12:22:14;;;;;;;2.25;1.60;;;;;;;;;;4998559;28;20553;-59
2021/11/29 12:24:42;;;;;;;3.45;1.60;;;;;;;;;;5001949;28;20061;-61
2021/11/29 12:27:10;;;;;;;2.45;1.67;;;;;;;;;;4990978;28;20052;-59
2021/11/29 12:29:39;;;;;;;2.72;1.98;;;;;;;;;;4982242;28;20078;-59
2021/11/29 12:32:04;;;;;;;2.85;1.45;;;;;;;;;;4982130;28;20037;-60
2021/11/29 12:34:53;;;;;;;2.35;1.52;;;;;;;;;;5003341;28;20117;-60
2021/11/29 12:37:24;;;;;;;4.10;1.92;;;;;;;;;;4968592;28;20647;-61
2021/11/29 12:39:56;;;;;;;5.38;1.77;;;;;;;;;;4996914;28;20574;-59
2021/11/29 12:42:27;;;;;;;2.75;1.80;;;;;;;;;;5008032;28;20033;-60
2021/11/29 12:44:57;;;;;;;9.03;2.03;;;;;;;;;;4988940;28;20030;-60
2021/11/29 12:47:25;;;;;;;3.15;2.08;;;;;;;;;;5008887;28;20127;-60
2021/11/29 12:49:57;;;;;;;2.65;1.80;;;;;;;;;;4971496;28;20126;-62
2021/11/29 12:52:36;;;;;;;3.90;1.98;;;;;;;;;;4991083;28;22392;-61
2021/11/29 12:55:26;;;;;;;6.07;2.20;;;;;;;;;;4988015;28;20033;-61
2021/11/29 12:58:07;;;;;;;4.47;1.92;;;;;;;;;;5008582;28;20033;-61
2021/11/29 13:00:44;;;;;;;3.08;2.10;;;;;;;;;;4992008;28;20728;-60
2021/11/29 13:03:10;;;;;;;3.55;1.88;;;;;;;;;;4972276;28;20041;-59
2021/11/29 13:05:37;;;;;;;3.17;2.10;;;;;;;;;;5011452;28;20756;-60
2021/11/29 13:08:06;;;;;;;5.30;1.95;;;;;;;;;;5011418;28;20110;-60
2021/11/29 13:11:07;;;;;;;3.42;2.40;;;;;;;;;;5010847;28;21964;-60
2021/11/29 13:13:38;;;;;;;3.80;2.08;;;;;;;;;;4985768;28;20047;-60
2021/11/29 13:16:06;;;;;;;3.80;2.28;;;;;;;;;;4989406;28;20045;-60
2021/11/29 13:18:41;;;;;;;9.55;2.75;;;;;;;;;;5007461;28;20090;-60
2021/11/29 13:21:09;;;;;;;4.05;2.08;;;;;;;;;;4993597;28;20055;-61
2021/11/29 13:23:43;;;;;;;4.45;2.63;;;;;;;;;;5015222;28;20322;-60
2021/11/29 13:26:12;;;;;;;4.03;2.42;;;;;;;;;;4994347;28;20041;-60
2021/11/29 13:28:43;;;;;;;3.35;1.98;;;;;;;;;;5011239;28;20112;-60
2021/11/29 13:31:09;;;;;;;2.17;1.63;;;;;;;;;;5014920;28;20048;-60
2021/11/29 13:33:42;;;;;;;3.30;2.05;;;;;;;;;;4995926;28;20033;-60
2021/11/29 13:36:11;;;;;;;5.65;2.00;;;;;;;;;;4992774;28;20034;-60
2021/11/29 13:38:39;;;;;;;3.70;2.35;;;;;;;;;;5014946;28;20061;-60
2021/11/29 13:41:14;;;;;;;3.63;2.13;;;;;;;;;;5014376;28;20041;-62
2021/11/29 13:43:39;;;;;;;3.78;2.20;;;;;;;;;;4997481;28;20182;-61
2021/11/29 13:46:15;;;;;;;4.40;2.47;;;;;;;;;;4993143;28;20550;-61
2021/11/29 13:48:44;;;;;;;3.65;2.30;;;;;;;;;;5011177;28;20033;-62
2021/11/29 13:51:10;;;;;;;11.32;2.40;;;;;;;;;;5012183;28;20045;-60
2021/11/29 13:53:39;;;;;;;5.25;2.25;;;;;;;;;;4994298;28;20037;-60
2021/11/29 13:56:05;;;;;;;5.45;2.35;;;;;;;;;;4994585;28;20037;-61
2021/11/29 13:58:32;;;;;;;3.35;2.20;;;;;;;;;;5013448;28;20079;-60
2021/11/29 14:01:02;;;;;;;3.42;2.05;;;;;;;;;;4992980;28;20048;-60
2021/11/29 14:03:43;;;;;;;5.63;2.05;;;;;;;;;;4997640;28;20497;-59
2021/11/29 14:06:11;;;;;;;4.05;2.38;;;;;;;;;;5013528;28;20127;-61
2021/11/29 14:08:39;;;;;;;4.55;2.35;;;;;;;;;;4979994;28;20039;-62
2021/11/29 14:11:05;;;;;;;2.83;1.90;;;;;;;;;;5010306;28;20056;-60
2021/11/29 14:13:44;;;;;;;4.07;2.13;;;;;;;;;;5015518;28;20053;-60
2021/11/29 14:16:17;;;;;;;5.05;2.70;;;;;;;;;;4990506;28;20044;-61
2021/11/29 14:18:45;;;;;;;5.53;2.85;;;;;;;;;;4991503;28;20025;-60
2021/11/29 14:21:15;;;;;;;5.68;2.75;;;;;;;;;;4973235;28;20033;-62
2021/11/29 14:23:41;;;;;;;3.50;1.88;;;;;;;;;;5010995;28;20040;-60
2021/11/29 14:26:07;;;;;;;3.97;1.88;;;;;;;;;;5012436;28;21114;-60
2021/11/29 14:28:36;;;;;;;3.08;2.28;;;;;;;;;;5015730;28;20106;-60
2021/11/29 14:31:02;;;;;;;5.60;2.53;;;;;;;;;;4993245;28;20263;-59
2021/11/29 14:33:32;;;;;;;4.53;2.55;;;;;;;;;;5013492;28;20369;-60
2021/11/29 14:35:57;;;;;;;4.90;2.47;;;;;;;;;;4989983;28;20033;-60
2021/11/29 14:38:25;;;;;;;4.70;2.65;;;;;;;;;;4993370;28;22141;-60
2021/11/29 14:41:02;;;;;;;4.70;2.58;;;;;;;;;;5011918;28;20091;-61
2021/11/29 14:43:32;;;;;;;8.80;2.38;;;;;;;;;;4991973;28;20025;-62
2021/11/29 14:45:59;;;;;;;7.93;2.63;;;;;;;;;;4992913;28;20536;-62
2021/11/29 14:48:28;;;;;;;5.95;2.50;;;;;;;;;;5010403;28;20029;-61
2021/11/29 14:50:56;;;;;;;5.05;2.92;;;;;;;;;;5011624;28;20044;-60
2021/11/29 14:53:25;;;;;;;4.90;3.00;;;;;;;;;;5004851;28;20041;-60
2021/11/29 14:55:56;;;;;;;5.22;3.05;;;;;;;;;;4991374;28;20025;-61
2021/11/29 14:58:29;;;;;;;5.82;2.90;;;;;;;;;;4967218;28;20033;-61
2021/11/29 15:00:56;;;;;;;6.00;3.13;;;;;;;;;;5008798;28;20076;-60
2021/11/29 15:03:24;;;;;;;8.73;3.60;;;;;;;;;;5011823;28;21033;-61
2021/11/29 15:05:55;;;;;;;9.45;3.28;;;;;;;;;;4992059;28;20128;-61